Time;durP1;ratioP1;P1;durP2;ratioP2;P2;SDS_P1;SDS_P2;PMS_P1;PMS_P2;Temp;Humidity;BMP_temperature;BMP_pressure;BME280_temperature;BME280_humidity;BME280_pressure;Samples;Min_cycle;Max_cycle;Signal;HPM_P1;HPM_P2
2023/09/21 00:00:18;;;;;;;3.00;1.70;;;18.90;99.90;;;;;;6188355;23;20027;-83
2023/09/21 00:02:49;;;;;;;5.93;1.70;;;18.90;99.90;;;;;;6189731;23;20021;-83
2023/09/21 00:05:25;;;;;;;3.55;1.80;;;18.90;99.90;;;;;;6161407;23;20645;-83
2023/09/21 00:07:50;;;;;;;3.08;1.83;;;18.90;99.90;;;;;;6189354;23;20035;-82
2023/09/21 00:10:18;;;;;;;5.75;1.85;;;18.90;99.90;;;;;;6189225;23;20021;-83
2023/09/21 00:12:44;;;;;;;5.63;1.77;;;18.90;99.90;;;;;;6188751;23;20032;-84
2023/09/21 00:15:12;;;;;;;4.82;2.03;;;18.90;99.90;;;;;;6190282;23;20021;-84
2023/09/21 00:17:39;;;;;;;3.80;1.90;;;18.90;99.90;;;;;;6163428;23;20021;-83
2023/09/21 00:20:23;;;;;;;4.65;2.08;;;18.90;99.90;;;;;;6190397;23;20059;-84
2023/09/21 00:23:04;;;;;;;3.53;1.45;;;18.90;99.90;;;;;;6189375;23;20044;-84
2023/09/21 00:25:30;;;;;;;3.70;1.98;;;18.90;99.90;;;;;;6188617;23;20032;-84
2023/09/21 00:27:56;;;;;;;4.55;1.90;;;19.00;99.90;;;;;;6162791;23;20077;-84
2023/09/21 00:30:21;;;;;;;4.38;1.55;;;19.00;99.90;;;;;;6161222;23;20056;-83
2023/09/21 00:32:47;;;;;;;2.95;1.42;;;19.10;99.90;;;;;;6163273;23;20029;-84
2023/09/21 00:35:15;;;;;;;5.20;2.00;;;19.10;99.90;;;;;;6188348;23;20749;-84
2023/09/21 00:37:42;;;;;;;7.07;1.98;;;19.10;99.90;;;;;;6189222;23;20056;-84
2023/09/21 00:40:14;;;;;;;4.28;1.60;;;19.00;99.90;;;;;;6162346;23;20125;-84
2023/09/21 00:42:41;;;;;;;4.57;1.92;;;19.00;99.90;;;;;;6187874;23;20025;-84
2023/09/21 00:45:08;;;;;;;3.28;1.50;;;19.00;99.90;;;;;;6162399;23;20091;-84
2023/09/21 00:47:39;;;;;;;5.30;2.00;;;19.00;99.90;;;;;;6187431;23;20098;-84
2023/09/21 00:50:08;;;;;;;3.60;1.33;;;19.00;99.90;;;;;;6162996;23;20021;-83
2023/09/21 00:52:35;;;;;;;3.75;1.45;;;19.00;99.90;;;;;;6188849;23;20319;-84
2023/09/21 00:55:02;;;;;;;4.40;2.03;;;19.00;99.90;;;;;;6161463;23;20073;-78
2023/09/21 00:57:28;;;;;;;3.00;2.08;;;19.00;99.90;;;;;;6188415;23;20094;-84
2023/09/21 00:59:53;;;;;;;4.70;1.95;;;18.90;99.90;;;;;;6187499;23;20021;-85
2023/09/21 01:02:22;;;;;;;2.75;1.75;;;18.80;99.90;;;;;;6189391;23;20031;-84
2023/09/21 01:04:47;;;;;;;3.97;1.85;;;18.80;99.90;;;;;;6187692;23;20025;-84
2023/09/21 01:07:21;;;;;;;7.05;2.00;;;18.80;99.90;;;;;;6189786;23;20028;-83
2023/09/21 01:09:50;;;;;;;3.67;1.80;;;18.80;99.90;;;;;;6188446;23;20024;-83
2023/09/21 01:12:16;;;;;;;4.07;1.92;;;18.80;99.90;;;;;;6173242;23;20028;-69
2023/09/21 01:14:43;;;;;;;5.97;1.48;;;18.80;99.90;;;;;;6161607;23;20326;-68
2023/09/21 01:17:09;;;;;;;3.50;1.70;;;18.80;99.90;;;;;;6159465;23;20064;-67
2023/09/21 01:19:35;;;;;;;2.30;1.45;;;18.90;99.90;;;;;;6161717;23;20025;-69
2023/09/21 01:22:08;;;;;;;2.20;1.30;;;18.80;99.90;;;;;;6161289;23;20104;-68
2023/09/21 01:24:35;;;;;;;3.13;1.60;;;18.80;99.90;;;;;;6160703;23;20018;-68
2023/09/21 01:27:01;;;;;;;2.53;1.75;;;18.80;99.90;;;;;;6162111;23;20053;-68
2023/09/21 01:29:29;;;;;;;3.33;1.80;;;18.80;99.90;;;;;;6135598;23;20463;-68
2023/09/21 01:31:56;;;;;;;3.30;2.00;;;18.70;99.90;;;;;;6163924;23;20029;-68
2023/09/21 01:34:22;;;;;;;3.00;1.88;;;18.80;99.90;;;;;;6160596;23;20029;-68
2023/09/21 01:36:48;;;;;;;5.20;1.95;;;18.80;99.90;;;;;;6137384;23;20029;-68
2023/09/21 01:39:13;;;;;;;2.38;1.67;;;18.80;99.90;;;;;;6136567;23;20024;-67
2023/09/21 01:41:39;;;;;;;4.15;1.88;;;18.70;99.90;;;;;;6136281;23;20021;-68
2023/09/21 01:44:06;;;;;;;4.15;1.83;;;18.70;99.90;;;;;;6162389;23;20069;-69
2023/09/21 01:46:33;;;;;;;3.65;1.83;;;18.70;99.90;;;;;;6162081;23;20025;-66
2023/09/21 01:48:59;;;;;;;5.18;1.85;;;18.70;99.90;;;;;;6161747;23;20513;-68
2023/09/21 01:51:25;;;;;;;2.22;1.58;;;18.70;99.90;;;;;;6160204;23;20025;-67
2023/09/21 01:53:53;;;;;;;4.63;1.92;;;18.70;99.90;;;;;;6161888;23;20030;-69
2023/09/21 01:56:20;;;;;;;6.05;1.80;;;18.70;99.90;;;;;;6163039;23;20021;-67
2023/09/21 01:58:46;;;;;;;2.72;1.80;;;18.80;99.90;;;;;;6162921;23;20036;-68
2023/09/21 02:01:16;;;;;;;3.67;1.58;;;18.80;99.90;;;;;;6164013;23;20044;-67
2023/09/21 02:03:42;;;;;;;2.63;1.48;;;18.80;99.90;;;;;;6135669;23;20049;-68
2023/09/21 02:06:08;;;;;;;4.15;1.60;;;18.90;99.90;;;;;;6163515;23;20028;-67
2023/09/21 02:08:33;;;;;;;3.45;1.42;;;18.80;99.90;;;;;;6159710;23;20025;-68
2023/09/21 02:10:59;;;;;;;2.63;1.90;;;18.90;99.90;;;;;;6164047;23;20021;-67
2023/09/21 02:13:25;;;;;;;5.68;1.40;;;18.90;99.90;;;;;;6161914;23;20092;-68
2023/09/21 02:15:51;;;;;;;2.97;1.67;;;18.90;99.90;;;;;;6195675;23;20100;-69
2023/09/21 02:18:18;;;;;;;2.90;1.70;;;18.80;99.90;;;;;;6172033;23;20124;-68
2023/09/21 02:20:46;;;;;;;3.65;1.70;;;18.90;99.90;;;;;;6194796;23;20077;-67
2023/09/21 02:23:12;;;;;;;2.88;1.63;;;18.90;99.90;;;;;;6171620;23;20102;-68
2023/09/21 02:25:40;;;;;;;4.00;1.80;;;18.90;99.90;;;;;;6219933;23;20041;-68
2023/09/21 02:28:11;;;;;;;3.28;1.70;;;18.90;99.90;;;;;;6196863;23;20034;-68
2023/09/21 02:30:47;;;;;;;3.35;1.80;;;18.90;99.90;;;;;;6222985;23;20025;-67
2023/09/21 02:33:17;;;;;;;4.40;1.33;;;18.90;99.90;;;;;;6221676;23;20031;-68
2023/09/21 02:35:46;;;;;;;4.47;1.48;;;18.90;99.90;;;;;;6223406;23;20027;-68
2023/09/21 02:38:12;;;;;;;2.58;1.40;;;18.90;99.90;;;;;;6220704;23;20032;-68
2023/09/21 02:40:40;;;;;;;4.28;1.52;;;18.90;99.90;;;;;;6196376;23;20056;-68
2023/09/21 02:43:08;;;;;;;4.00;1.67;;;18.90;99.90;;;;;;6221815;23;20039;-69
2023/09/21 02:45:36;;;;;;;5.95;1.98;;;18.90;99.90;;;;;;6222516;23;20021;-67
2023/09/21 02:48:02;;;;;;;3.13;1.67;;;18.90;99.90;;;;;;6171164;23;20032;-69
2023/09/21 02:50:30;;;;;;;3.33;1.80;;;18.90;99.90;;;;;;6194647;23;20059;-68
2023/09/21 02:52:57;;;;;;;4.50;1.63;;;18.90;99.90;;;;;;6221430;23;20017;-68
2023/09/21 02:55:25;;;;;;;2.60;1.35;;;18.90;99.90;;;;;;6194161;23;20032;-68
2023/09/21 02:57:55;;;;;;;3.78;1.65;;;18.90;99.90;;;;;;6224819;23;20052;-69
2023/09/21 03:00:34;;;;;;;2.38;1.75;;;18.90;99.90;;;;;;6197055;23;20029;-68
2023/09/21 03:03:02;;;;;;;2.78;1.73;;;18.90;99.90;;;;;;6196965;23;20834;-68
2023/09/21 03:05:28;;;;;;;4.82;1.75;;;18.90;99.90;;;;;;6225206;23;20123;-68
2023/09/21 03:07:55;;;;;;;2.42;1.60;;;18.90;99.90;;;;;;6196082;23;20036;-67
2023/09/21 03:10:25;;;;;;;4.18;1.65;;;18.90;99.90;;;;;;6198243;23;20024;-68
2023/09/21 03:12:52;;;;;;;2.33;1.80;;;18.80;99.90;;;;;;6222898;23;20055;-67
2023/09/21 03:15:19;;;;;;;2.80;1.52;;;18.80;99.90;;;;;;6224413;23;20021;-67
2023/09/21 03:17:47;;;;;;;6.03;1.85;;;18.80;99.90;;;;;;6195393;23;20098;-68
2023/09/21 03:20:36;;;;;;;2.17;1.40;;;18.80;99.90;;;;;;6195506;23;20032;-68
2023/09/21 03:23:05;;;;;;;7.00;1.65;;;18.80;99.90;;;;;;6196803;23;20083;-68
2023/09/21 03:25:40;;;;;;;5.10;1.55;;;18.80;99.90;;;;;;6169897;23;20017;-68
2023/09/21 03:28:13;;;;;;;3.40;1.90;;;18.70;99.90;;;;;;6221843;23;20020;-68
2023/09/21 03:30:39;;;;;;;3.47;1.70;;;18.70;99.90;;;;;;6222416;23;20111;-68
2023/09/21 03:33:06;;;;;;;6.60;1.80;;;18.70;99.90;;;;;;6195747;23;20021;-68
2023/09/21 03:35:32;;;;;;;3.45;1.67;;;18.70;99.90;;;;;;6171167;23;20024;-68
2023/09/21 03:37:59;;;;;;;4.13;1.60;;;18.70;99.90;;;;;;6221563;23;20048;-68
2023/09/21 03:40:25;;;;;;;3.78;1.70;;;18.70;99.90;;;;;;6223286;23;20490;-68
2023/09/21 03:42:55;;;;;;;4.60;1.92;;;18.60;99.90;;;;;;6219632;23;20032;-68
2023/09/21 03:45:24;;;;;;;4.88;2.00;;;18.60;99.90;;;;;;6171386;23;20024;-69
2023/09/21 03:47:53;;;;;;;2.28;1.48;;;18.60;99.90;;;;;;6222107;23;20027;-67
2023/09/21 03:50:20;;;;;;;4.88;2.17;;;18.60;99.90;;;;;;6221878;23;20024;-67
2023/09/21 03:52:47;;;;;;;5.68;1.77;;;18.60;99.90;;;;;;6196051;23;20032;-68
2023/09/21 03:55:16;;;;;;;5.15;1.50;;;18.60;99.90;;;;;;6194640;23;20025;-68
2023/09/21 03:57:46;;;;;;;4.25;1.80;;;18.50;99.90;;;;;;6223174;23;20059;-68
2023/09/21 04:02:54;;;;;;;4.00;1.90;;;18.50;99.90;;;;;;6221464;23;20035;-68
2023/09/21 04:05:23;;;;;;;3.88;1.73;;;18.50;99.90;;;;;;6195882;23;20025;-69
2023/09/21 04:07:49;;;;;;;2.40;1.65;;;18.50;99.90;;;;;;6221191;23;20029;-68
2023/09/21 04:10:15;;;;;;;2.58;1.70;;;18.50;99.90;;;;;;6196686;23;20088;-69
2023/09/21 04:12:44;;;;;;;3.15;1.88;;;18.40;99.90;;;;;;6221256;23;20024;-69
2023/09/21 04:15:11;;;;;;;2.78;1.88;;;18.50;99.90;;;;;;6196325;23;20911;-69
2023/09/21 04:17:40;;;;;;;2.85;1.63;;;18.40;99.90;;;;;;6221509;23;20341;-68
2023/09/21 04:20:11;;;;;;;5.03;2.13;;;18.40;99.90;;;;;;6222052;23;20024;-68
2023/09/21 04:22:38;;;;;;;3.55;2.08;;;18.40;99.90;;;;;;6170899;23;20020;-68
2023/09/21 04:25:09;;;;;;;3.40;1.95;;;18.50;99.90;;;;;;6169714;23;20045;-69
2023/09/21 04:27:39;;;;;;;3.72;2.22;;;18.50;99.90;;;;;;6196070;23;20031;-68
2023/09/21 04:30:08;;;;;;;2.05;1.48;;;18.50;99.90;;;;;;6169218;23;20036;-69
2023/09/21 04:32:35;;;;;;;3.28;1.67;;;18.50;99.90;;;;;;6222437;23;20020;-71
2023/09/21 04:35:03;;;;;;;3.72;1.60;;;18.50;99.90;;;;;;6195063;23;20029;-71
2023/09/21 04:37:29;;;;;;;3.58;1.92;;;18.50;99.90;;;;;;6221852;23;20039;-70
2023/09/21 04:39:55;;;;;;;4.75;1.95;;;18.50;99.90;;;;;;6195201;23;20021;-71
2023/09/21 04:42:21;;;;;;;2.75;1.60;;;18.50;99.90;;;;;;6193700;23;20064;-70
2023/09/21 04:44:46;;;;;;;3.33;1.88;;;18.50;99.90;;;;;;6196129;23;20025;-70
2023/09/21 04:47:12;;;;;;;2.47;1.60;;;18.40;99.90;;;;;;6169309;23;20029;-67
2023/09/21 04:49:38;;;;;;;3.13;1.80;;;18.50;99.90;;;;;;6222848;23;20081;-68
2023/09/21 04:52:04;;;;;;;2.38;1.55;;;18.50;99.90;;;;;;6221592;23;20099;-68
2023/09/21 04:54:30;;;;;;;4.53;1.60;;;18.40;99.90;;;;;;6195400;23;20025;-70
2023/09/21 04:56:56;;;;;;;2.53;1.63;;;18.40;99.90;;;;;;6170748;23;20025;-68
2023/09/21 04:59:23;;;;;;;2.95;1.63;;;18.40;99.90;;;;;;6194336;23;20032;-69
2023/09/21 05:01:49;;;;;;;2.92;1.60;;;18.30;99.90;;;;;;6222649;23;20024;-69
2023/09/21 05:04:15;;;;;;;2.70;1.42;;;18.40;99.90;;;;;;6220944;23;20016;-68
2023/09/21 05:06:40;;;;;;;4.65;1.90;;;18.40;99.90;;;;;;6195915;23;20024;-71
2023/09/21 05:09:07;;;;;;;3.35;1.50;;;18.30;99.90;;;;;;6221467;23;20838;-68
2023/09/21 05:11:38;;;;;;;5.22;1.65;;;18.30;99.90;;;;;;6220196;23;20024;-69
2023/09/21 05:14:08;;;;;;;2.33;1.60;;;18.30;99.90;;;;;;6195231;23;20032;-70
2023/09/21 05:16:37;;;;;;;2.50;1.75;;;18.30;99.90;;;;;;6193957;23;20024;-69
2023/09/21 05:19:04;;;;;;;2.17;1.65;;;18.30;99.90;;;;;;6195488;23;20021;-69
2023/09/21 05:21:30;;;;;;;3.78;1.70;;;18.30;99.90;;;;;;6168842;23;20024;-70
2023/09/21 05:23:56;;;;;;;4.40;1.63;;;18.30;99.90;;;;;;6222210;23;20048;-69
2023/09/21 05:26:22;;;;;;;2.22;1.45;;;18.30;99.90;;;;;;6220958;23;20028;-69
2023/09/21 05:28:49;;;;;;;2.88;1.83;;;18.30;99.90;;;;;;6221299;23;20024;-68
2023/09/21 05:31:14;;;;;;;4.75;1.70;;;18.30;99.90;;;;;;6221722;23;20020;-69
2023/09/21 05:33:40;;;;;;;2.92;1.73;;;18.30;99.90;;;;;;6193655;23;20028;-70
2023/09/21 05:36:06;;;;;;;6.50;2.00;;;18.30;99.90;;;;;;6195065;23;20050;-69
2023/09/21 05:38:32;;;;;;;6.75;1.85;;;18.30;99.90;;;;;;6168690;23;20025;-70
2023/09/21 05:41:04;;;;;;;2.55;1.90;;;18.40;99.90;;;;;;6170513;23;20028;-69
2023/09/21 05:43:30;;;;;;;3.47;1.80;;;18.40;99.90;;;;;;6194455;23;20476;-70
2023/09/21 05:45:56;;;;;;;2.53;1.48;;;18.50;99.90;;;;;;6221132;23;20039;-70
2023/09/21 05:48:22;;;;;;;5.28;1.58;;;18.50;99.90;;;;;;6195228;23;20028;-69
2023/09/21 05:50:49;;;;;;;3.42;1.75;;;18.50;99.90;;;;;;6220558;23;20020;-68
2023/09/21 05:53:15;;;;;;;4.38;1.60;;;18.60;99.90;;;;;;6195557;23;20028;-69
2023/09/21 05:55:44;;;;;;;3.55;1.73;;;18.60;99.90;;;;;;6168711;23;20054;-69
2023/09/21 05:58:10;;;;;;;3.92;1.88;;;18.60;99.90;;;;;;6170467;23;20527;-67
2023/09/21 06:00:36;;;;;;;6.35;2.30;;;18.70;99.90;;;;;;6194418;23;20032;-68
2023/09/21 06:03:02;;;;;;;2.85;1.65;;;18.70;99.90;;;;;;6194990;23;20036;-68
2023/09/21 06:05:29;;;;;;;2.88;1.73;;;18.70;99.90;;;;;;6170678;23;20076;-68
2023/09/21 06:07:56;;;;;;;2.20;1.65;;;18.70;99.90;;;;;;6193973;23;20444;-68
2023/09/21 06:10:30;;;;;;;6.35;2.00;;;18.80;99.90;;;;;;6222264;23;20024;-68
2023/09/21 06:12:56;;;;;;;3.28;1.77;;;18.80;99.90;;;;;;6193636;23;20028;-69
2023/09/21 06:15:22;;;;;;;6.43;1.90;;;18.80;99.90;;;;;;6194729;23;20032;-69
2023/09/21 06:17:48;;;;;;;5.45;1.80;;;18.90;99.90;;;;;;6194374;23;20370;-67
2023/09/21 06:20:15;;;;;;;4.32;1.98;;;18.90;99.90;;;;;;6192779;23;20683;-67
2023/09/21 06:22:41;;;;;;;3.03;1.50;;;19.00;99.90;;;;;;6169522;23;20024;-68
2023/09/21 06:25:07;;;;;;;3.00;1.92;;;19.00;99.90;;;;;;6193410;23;20032;-69
2023/09/21 06:27:33;;;;;;;5.05;1.65;;;19.00;99.90;;;;;;6195149;23;20032;-68
2023/09/21 06:29:59;;;;;;;2.30;1.45;;;19.20;99.90;;;;;;6219633;23;20027;-69
2023/09/21 06:32:25;;;;;;;6.45;1.90;;;19.20;99.90;;;;;;6171128;23;20207;-68
2023/09/21 06:34:51;;;;;;;2.42;1.52;;;19.20;99.90;;;;;;6222721;23;20025;-69
2023/09/21 06:37:21;;;;;;;4.25;1.92;;;19.30;99.90;;;;;;6222997;23;20738;-69
2023/09/21 06:39:47;;;;;;;3.78;1.58;;;19.30;99.90;;;;;;6223402;23;20036;-68
2023/09/21 06:42:15;;;;;;;2.15;1.63;;;19.20;99.90;;;;;;6195354;23;20025;-69
2023/09/21 06:44:41;;;;;;;8.27;1.90;;;19.20;99.90;;;;;;6223647;23;20039;-70
2023/09/21 06:47:07;;;;;;;2.53;1.65;;;19.20;99.90;;;;;;6221892;23;20032;-69
2023/09/21 06:49:35;;;;;;;3.15;2.30;;;19.20;99.90;;;;;;6196577;23;20060;-68
2023/09/21 06:52:04;;;;;;;4.03;1.63;;;19.20;99.90;;;;;;6196085;23;20013;-70
2023/09/21 06:54:31;;;;;;;4.38;1.58;;;19.20;99.90;;;;;;6195851;23;20100;-69
2023/09/21 06:57:03;;;;;;;4.28;1.67;;;19.20;99.90;;;;;;6222972;23;20442;-69
2023/09/21 06:59:36;;;;;;;3.47;1.80;;;19.20;99.90;;;;;;6220287;23;20027;-69
2023/09/21 07:02:04;;;;;;;3.92;1.60;;;19.20;99.90;;;;;;6196010;23;20028;-69
2023/09/21 07:04:33;;;;;;;6.95;2.05;;;19.20;99.90;;;;;;6194576;23;20056;-71
2023/09/21 07:07:05;;;;;;;7.68;2.10;;;19.20;99.90;;;;;;6222660;23;20021;-69
2023/09/21 07:09:32;;;;;;;3.20;1.98;;;19.20;99.90;;;;;;6196217;23;20032;-68
2023/09/21 07:11:57;;;;;;;5.10;2.08;;;19.20;99.90;;;;;;6194797;23;20070;-68
2023/09/21 07:14:23;;;;;;;5.55;1.80;;;19.20;99.90;;;;;;6181495;23;20029;-68
2023/09/21 07:16:49;;;;;;;3.67;1.90;;;19.30;99.90;;;;;;6160322;23;20056;-68
2023/09/21 07:19:14;;;;;;;3.45;2.13;;;19.30;99.90;;;;;;6160451;23;20070;-68
2023/09/21 07:21:40;;;;;;;2.95;1.80;;;19.30;99.90;;;;;;6133879;23;20033;-68
2023/09/21 07:24:07;;;;;;;2.85;2.10;;;19.30;99.90;;;;;;6135489;23;20101;-68
2023/09/21 07:26:34;;;;;;;3.55;1.80;;;19.30;99.90;;;;;;6134731;23;20156;-68
2023/09/21 07:29:07;;;;;;;2.28;1.52;;;19.30;99.90;;;;;;6134766;23;20021;-70
2023/09/21 07:31:36;;;;;;;4.85;1.77;;;19.30;99.90;;;;;;6136740;23;20018;-66
2023/09/21 07:34:02;;;;;;;4.60;2.00;;;19.30;99.90;;;;;;6158270;23;20053;-70
2023/09/21 07:36:28;;;;;;;3.70;1.77;;;19.30;99.90;;;;;;6111486;23;20017;-67
2023/09/21 07:38:55;;;;;;;4.82;1.83;;;19.30;99.90;;;;;;6160522;23;20129;-68
2023/09/21 07:41:21;;;;;;;3.00;1.88;;;19.40;99.90;;;;;;6159787;23;20105;-68
2023/09/21 07:43:50;;;;;;;3.88;1.80;;;19.40;99.90;;;;;;6159456;23;20025;-68
2023/09/21 07:46:16;;;;;;;4.07;2.00;;;19.40;99.90;;;;;;6158745;23;20044;-67
2023/09/21 07:48:42;;;;;;;4.55;2.00;;;19.40;99.90;;;;;;6160509;23;20029;-68
2023/09/21 07:51:08;;;;;;;5.15;1.90;;;19.50;99.90;;;;;;6133076;23;20053;-68
2023/09/21 07:53:40;;;;;;;3.88;2.00;;;19.50;99.90;;;;;;6160202;23;20083;-68
2023/09/21 07:56:11;;;;;;;3.67;2.00;;;19.50;99.90;;;;;;6159990;23;20025;-68
2023/09/21 07:58:37;;;;;;;4.10;1.77;;;19.60;99.90;;;;;;6161231;23;20069;-69
2023/09/21 08:01:03;;;;;;;2.70;1.90;;;19.60;99.90;;;;;;6159605;23;20029;-69
2023/09/21 08:03:29;;;;;;;4.53;2.22;;;19.60;99.90;;;;;;6158648;23;20028;-69
2023/09/21 08:05:56;;;;;;;6.28;1.83;;;19.60;99.90;;;;;;6160122;23;20080;-69
2023/09/21 08:08:25;;;;;;;3.70;2.30;;;19.50;99.90;;;;;;6159518;23;20021;-69
2023/09/21 08:10:52;;;;;;;4.30;2.00;;;19.50;99.90;;;;;;6160052;23;20470;-68
2023/09/21 08:13:18;;;;;;;4.32;2.13;;;19.50;99.90;;;;;;6160175;23;20029;-69
2023/09/21 08:15:44;;;;;;;2.97;1.73;;;19.50;99.90;;;;;;6158696;23;20088;-69
2023/09/21 08:18:12;;;;;;;6.35;2.08;;;19.50;99.90;;;;;;6159081;23;20072;-68
2023/09/21 08:20:41;;;;;;;4.65;2.20;;;19.40;99.90;;;;;;6158381;23;20029;-67
2023/09/21 08:23:08;;;;;;;6.68;2.13;;;19.40;99.90;;;;;;6161961;23;20410;-69
2023/09/21 08:25:35;;;;;;;4.20;2.30;;;19.40;99.90;;;;;;6157847;23;20671;-69
2023/09/21 08:28:04;;;;;;;6.53;2.50;;;19.40;99.90;;;;;;6135312;23;20029;-70
2023/09/21 08:30:33;;;;;;;3.95;2.38;;;19.30;99.90;;;;;;6158448;23;20017;-68
2023/09/21 08:32:59;;;;;;;3.22;2.15;;;19.30;99.90;;;;;;6158488;23;20048;-70
2023/09/21 08:35:26;;;;;;;4.18;2.30;;;19.30;99.90;;;;;;6161200;23;20030;-67
2023/09/21 08:37:52;;;;;;;4.07;2.20;;;19.30;99.90;;;;;;6160019;23;20026;-70
2023/09/21 08:40:21;;;;;;;3.45;2.45;;;19.20;99.90;;;;;;6159644;23;20044;-69
2023/09/21 08:42:52;;;;;;;4.60;2.30;;;19.20;99.90;;;;;;6159453;23;20099;-70
2023/09/21 08:45:19;;;;;;;3.45;1.95;;;19.10;99.90;;;;;;6135453;23;20096;-69
2023/09/21 08:47:46;;;;;;;5.68;2.40;;;19.10;99.90;;;;;;6158489;23;20021;-69
2023/09/21 08:50:15;;;;;;;3.95;2.10;;;19.10;99.90;;;;;;6159163;23;20044;-68
2023/09/21 08:52:45;;;;;;;5.38;2.40;;;19.00;99.90;;;;;;6159618;23;20378;-69
2023/09/21 08:55:16;;;;;;;4.63;2.50;;;19.10;99.90;;;;;;6132659;23;20036;-69
2023/09/21 08:57:42;;;;;;;4.35;2.15;;;19.00;99.90;;;;;;6159999;23;20037;-70
2023/09/21 09:00:08;;;;;;;3.70;2.20;;;19.10;99.90;;;;;;6159845;23;20021;-69
2023/09/21 09:02:35;;;;;;;4.63;2.22;;;19.00;99.90;;;;;;6159566;23;20052;-69
2023/09/21 09:05:08;;;;;;;8.23;2.78;;;19.00;99.90;;;;;;6158204;23;20026;-70
2023/09/21 09:07:41;;;;;;;5.75;2.20;;;19.00;99.90;;;;;;6133367;23;20033;-69
2023/09/21 09:10:14;;;;;;;4.13;3.08;;;19.00;99.90;;;;;;6161453;23;20025;-69
2023/09/21 09:12:41;;;;;;;4.15;2.50;;;19.00;99.90;;;;;;6157861;23;20053;-70
2023/09/21 09:15:08;;;;;;;4.38;2.30;;;19.00;99.90;;;;;;6159889;23;20029;-70
2023/09/21 09:17:35;;;;;;;4.50;2.38;;;19.00;99.90;;;;;;6159858;23;20032;-69
2023/09/21 09:20:05;;;;;;;4.68;2.40;;;19.00;99.90;;;;;;6160934;23;20033;-71
2023/09/21 09:22:34;;;;;;;3.80;2.42;;;19.00;99.90;;;;;;6134298;23;20063;-72
2023/09/21 09:25:09;;;;;;;3.97;2.60;;;19.00;99.90;;;;;;6133385;23;20097;-73
2023/09/21 09:27:35;;;;;;;5.03;2.45;;;18.90;99.90;;;;;;6159784;23;20029;-81
2023/09/21 09:30:03;;;;;;;5.95;2.83;;;18.90;99.90;;;;;;6159848;23;20032;-83
2023/09/21 09:32:37;;;;;;;3.55;2.30;;;18.80;99.90;;;;;;6162950;23;20026;-79
2023/09/21 09:35:13;;;;;;;4.05;2.75;;;18.90;99.90;;;;;;6161530;23;20084;-77
2023/09/21 09:37:40;;;;;;;5.35;2.47;;;18.90;99.90;;;;;;6161002;23;20069;-74
2023/09/21 09:40:13;;;;;;;5.97;2.80;;;18.90;99.90;;;;;;6164239;23;20025;-75
2023/09/21 09:42:45;;;;;;;4.15;2.28;;;18.90;99.90;;;;;;6132885;23;20021;-75
2023/09/21 09:45:30;;;;;;;4.40;2.38;;;18.90;99.90;;;;;;6160996;23;20025;-75
2023/09/21 09:48:01;;;;;;;6.63;2.60;;;18.90;99.90;;;;;;6158406;23;20029;-80
2023/09/21 09:50:34;;;;;;;4.15;2.60;;;18.80;99.90;;;;;;6157657;23;20025;-77
2023/09/21 09:53:05;;;;;;;6.32;2.30;;;18.80;99.90;;;;;;6160507;23;20025;-81
2023/09/21 09:55:33;;;;;;;5.43;2.63;;;18.70;99.90;;;;;;6132029;23;20033;-78
2023/09/21 09:58:03;;;;;;;8.48;2.78;;;18.70;99.90;;;;;;6159319;23;20032;-83
2023/09/21 10:00:30;;;;;;;4.72;2.65;;;18.60;99.90;;;;;;6159826;23;20021;-83
2023/09/21 10:02:57;;;;;;;5.53;2.65;;;18.60;99.90;;;;;;6160512;23;20021;-80
2023/09/21 10:05:27;;;;;;;4.43;2.55;;;18.50;99.90;;;;;;6160387;23;20025;-74
2023/09/21 10:07:56;;;;;;;3.33;2.40;;;18.50;99.90;;;;;;6158450;23;20073;-73
2023/09/21 10:10:24;;;;;;;4.57;2.65;;;18.50;99.90;;;;;;6159535;23;20033;-72
2023/09/21 10:12:52;;;;;;;3.80;2.53;;;18.50;99.90;;;;;;6157163;23;20028;-73
2023/09/21 10:15:24;;;;;;;6.00;3.20;;;18.50;99.90;;;;;;6158716;23;20633;-72
2023/09/21 10:17:54;;;;;;;7.47;3.35;;;18.40;99.90;;;;;;6157492;23;20049;-71
2023/09/21 10:20:27;;;;;;;3.30;2.97;;;18.40;99.90;;;;;;6133034;23;20065;-70
2023/09/21 10:22:59;;;;;;;6.00;2.70;;;18.40;99.90;;;;;;6158401;23;20060;-72
2023/09/21 10:25:37;;;;;;;6.15;2.42;;;18.40;99.90;;;;;;6157251;23;20384;-72
2023/09/21 10:28:23;;;;;;;6.93;3.15;;;18.40;99.90;;;;;;6160588;23;20455;-70
2023/09/21 10:30:52;;;;;;;3.40;2.33;;;18.40;99.90;;;;;;6160167;23;20033;-73
2023/09/21 10:33:18;;;;;;;3.95;2.80;;;18.40;99.90;;;;;;6157778;23;20053;-69
2023/09/21 10:35:45;;;;;;;5.28;3.00;;;18.30;99.90;;;;;;6160470;23;20026;-69
2023/09/21 10:38:17;;;;;;;4.65;2.85;;;18.40;99.90;;;;;;6158655;23;20029;-71
2023/09/21 10:40:43;;;;;;;5.07;2.95;;;18.40;99.90;;;;;;6159014;23;20025;-71
2023/09/21 10:43:37;;;;;;;4.78;2.78;;;18.30;99.90;;;;;;6158699;23;20088;-73
2023/09/21 10:46:23;;;;;;;5.18;2.70;;;18.30;99.90;;;;;;6157114;23;20513;-82
2023/09/21 10:49:07;;;;;;;4.00;2.80;;;18.20;99.90;;;;;;6161051;23;20077;-83
2023/09/21 10:51:35;;;;;;;5.20;2.33;;;18.20;99.90;;;;;;6158169;23;20037;-79
2023/09/21 10:54:04;;;;;;;3.45;2.25;;;18.20;99.90;;;;;;6109829;23;20030;-79
2023/09/21 10:56:31;;;;;;;4.43;2.67;;;18.10;99.90;;;;;;6159088;23;20080;-78
2023/09/21 10:58:57;;;;;;;2.50;1.85;;;18.00;99.90;;;;;;6157509;23;20025;-71
2023/09/21 11:01:25;;;;;;;3.78;2.20;;;18.10;99.90;;;;;;6160090;23;20021;-78
2023/09/21 11:03:51;;;;;;;3.50;2.10;;;18.10;99.90;;;;;;6158182;23;20025;-78
2023/09/21 11:06:17;;;;;;;2.00;1.75;;;18.00;99.90;;;;;;6159629;23;20060;-73
2023/09/21 11:08:50;;;;;;;1.98;1.50;;;18.00;99.90;;;;;;6131972;23;20025;-73
2023/09/21 11:11:17;;;;;;;1.65;1.25;;;18.00;99.90;;;;;;6132795;23;20029;-71
2023/09/21 11:13:43;;;;;;;3.72;1.50;;;18.00;99.90;;;;;;6158854;23;20025;-71
2023/09/21 11:16:09;;;;;;;2.08;0.95;;;18.00;99.90;;;;;;6166587;23;20031;-70
2023/09/21 11:18:39;;;;;;;2.00;1.10;;;18.00;99.90;;;;;;6220521;23;20024;-71
2023/09/21 11:21:08;;;;;;;1.85;0.90;;;17.90;99.90;;;;;;6192055;23;20092;-71
2023/09/21 11:23:36;;;;;;;0.70;0.68;;;17.90;99.90;;;;;;6195062;23;20025;-72
2023/09/21 11:26:02;;;;;;;2.30;1.00;;;17.90;99.90;;;;;;6191252;23;20024;-72
2023/09/21 11:28:32;;;;;;;4.10;1.05;;;17.80;99.90;;;;;;6192552;23;20024;-72
2023/09/21 11:30:58;;;;;;;0.75;0.75;;;17.80;99.90;;;;;;6219284;23;20133;-71
2023/09/21 11:33:27;;;;;;;2.10;0.82;;;17.80;99.90;;;;;;6217960;23;20537;-72
2023/09/21 11:35:53;;;;;;;3.15;1.50;;;17.80;99.90;;;;;;6194343;23;20029;-71
2023/09/21 11:38:20;;;;;;;3.53;1.30;;;17.90;99.90;;;;;;6192154;23;20048;-72
2023/09/21 11:40:49;;;;;;;2.00;1.33;;;17.90;99.90;;;;;;6221664;23;20025;-71
2023/09/21 11:43:16;;;;;;;2.42;1.80;;;17.90;99.90;;;;;;6220079;23;20083;-71
2023/09/21 11:45:46;;;;;;;4.35;1.75;;;17.90;99.90;;;;;;6169102;23;20024;-72
2023/09/21 11:48:12;;;;;;;4.75;1.90;;;18.00;99.90;;;;;;6193995;23;20047;-71
2023/09/21 11:50:39;;;;;;;3.10;1.63;;;18.10;99.90;;;;;;6219745;23;20021;-72
2023/09/21 11:53:06;;;;;;;2.05;1.80;;;18.00;99.90;;;;;;6194621;23;20025;-72
2023/09/21 11:55:33;;;;;;;3.00;1.60;;;18.10;99.90;;;;;;6167641;23;20028;-71
2023/09/21 11:58:16;;;;;;;2.58;1.65;;;18.20;99.90;;;;;;6194624;23;20028;-72
2023/09/21 12:00:44;;;;;;;1.60;1.50;;;18.20;99.90;;;;;;6193750;23;20040;-72
2023/09/21 12:03:16;;;;;;;2.08;1.63;;;18.10;99.90;;;;;;6168371;23;20033;-71
2023/09/21 12:05:45;;;;;;;2.92;1.55;;;18.10;99.90;;;;;;6221572;23;20064;-71
2023/09/21 12:08:16;;;;;;;2.10;1.30;;;18.10;99.90;;;;;;6167565;23;20035;-72
2023/09/21 12:10:45;;;;;;;1.35;1.05;;;18.10;99.90;;;;;;6194790;23;20127;-72
2023/09/21 12:13:11;;;;;;;2.78;1.08;;;18.00;99.90;;;;;;6192846;23;20025;-70
2023/09/21 12:15:38;;;;;;;1.25;0.80;;;17.90;99.90;;;;;;6220711;23;20029;-72
2023/09/21 12:18:10;;;;;;;1.42;1.15;;;17.90;99.90;;;;;;6193990;23;20016;-73
2023/09/21 12:20:49;;;;;;;1.50;1.13;;;18.10;99.90;;;;;;6192830;23;20035;-72
2023/09/21 12:23:16;;;;;;;1.83;1.13;;;18.10;99.90;;;;;;6170355;23;20262;-72
2023/09/21 12:25:42;;;;;;;1.67;0.77;;;18.10;99.90;;;;;;6219195;23;20055;-71
2023/09/21 12:28:11;;;;;;;1.67;0.85;;;18.20;99.90;;;;;;6219506;23;20068;-73
2023/09/21 12:30:38;;;;;;;2.83;1.17;;;18.20;99.90;;;;;;6220036;23;20028;-72
2023/09/21 12:33:06;;;;;;;1.88;1.08;;;18.10;99.90;;;;;;6193015;23;20020;-72
2023/09/21 12:35:32;;;;;;;2.00;0.65;;;18.00;99.90;;;;;;6220811;23;20029;-72
2023/09/21 12:37:58;;;;;;;3.13;0.88;;;18.00;99.90;;;;;;6219510;23;20090;-73
2023/09/21 12:40:24;;;;;;;1.17;0.85;;;18.00;99.90;;;;;;6221700;23;20087;-72
2023/09/21 12:42:52;;;;;;;0.85;0.70;;;17.90;99.90;;;;;;6167780;23;20056;-71
2023/09/21 12:45:17;;;;;;;0.65;0.55;;;17.70;99.90;;;;;;6169107;23;20339;-72
2023/09/21 12:47:44;;;;;;;0.80;0.60;;;17.80;99.90;;;;;;6219728;23;20096;-73
2023/09/21 12:50:12;;;;;;;4.25;0.65;;;17.70;99.90;;;;;;6219614;23;20025;-71
2023/09/21 12:52:42;;;;;;;1.02;0.50;;;17.60;99.90;;;;;;6219363;23;20024;-72
2023/09/21 12:55:09;;;;;;;0.60;0.60;;;17.60;99.90;;;;;;6192239;23;20020;-72